Main page
METAR-TAF:

METAR-TAF

Airports :

Wick Airport

Wick, Scotland

latitude: 58-27N, longitude: 003-05W, elevation: 39 m

Current weather observation

The report was made 19 minutes ago, at 03:20 UTC
Wind 8 kt from the West/Northwest
Temperature 5°C
Humidity 87%
Pressure 1014 hPa
Visibility 10 km or more

METAR: EGPC 230320Z AUTO 30008KT 9999 FEW034/// 05/03 Q1014

Time: 04:39 (03:39 UTC)

Forecast

The report was made 1 hour and 42 minutes ago, at 01:57 UTC
Forecast valid from 23 at 03 UTC to 23 at 12 UTC
Wind 12 kt from the Northwest
Visibility 10 km or more
Few clouds at a height of 4000 ft
Probability 30% :
Temporary
from 23 at 03 UTC to 23 at 12 UTC
Visibility: 6000 m
rain showers

TAF: EGPC 230157Z 2303/2312 31012KT 9999 FEW040 PROB30 TEMPO 2303/2312 6000 SHRA

Weather observations and forecasts of more than 4000 airports (METAR and TAF reports).

The available stations are represented by yellow and red dots on the map.

Hover mouse over dot to see the name of the station.

Then click to see weather observations and forecasts.

To change the map : click on the green buttons with a black cross to zoom in, on the green button with a dash to zoom out, or on the green arrows for adjacent maps.


METAR-TAF: